Time;durP1;ratioP1;P1;durP2;ratioP2;P2;SDS_P1;SDS_P2;PMS_P1;PMS_P2;Temp;Humidity;BMP_temperature;BMP_pressure;BME280_temperature;BME280_humidity;BME280_pressure;Samples;Min_cycle;Max_cycle;Signal;HPM_P1;HPM_P2
2023/09/01 00:00:46;;;;;;;;;1.00;1.00;;;;;19.92;60.84;100769.06;5113876;27;45337;-64
2023/09/01 00:03:12;;;;;;;;;1.75;1.75;;;;;19.90;60.95;100770.94;5080438;27;45346;-64
2023/09/01 00:05:38;;;;;;;;;1.75;1.75;;;;;19.91;61.31;100764.66;5080572;27;45342;-64
2023/09/01 00:08:04;;;;;;;;;1.00;1.00;;;;;19.91;61.39;100767.34;5080370;27;45349;-64
2023/09/01 00:10:30;;;;;;;;;1.00;1.00;;;;;19.90;61.38;100762.06;5079308;28;45274;-64
2023/09/01 00:12:57;;;;;;;;;1.00;1.00;;;;;19.89;61.34;100771.88;5113226;27;45513;-64
2023/09/01 00:15:23;;;;;;;;;1.25;1.00;;;;;19.90;60.75;100764.72;5080681;27;45225;-64
2023/09/01 00:17:48;;;;;;;;;1.75;1.75;;;;;19.88;60.80;100761.31;5080023;28;45224;-64
2023/09/01 00:20:13;;;;;;;;;0.25;0.25;;;;;19.87;61.28;100767.56;5080669;27;50489;-64
2023/09/01 00:22:38;;;;;;;;;0.00;0.00;;;;;19.87;60.96;100764.91;5079165;28;45393;-64
2023/09/01 00:25:05;;;;;;;;;3.50;2.25;;;;;19.87;61.10;100767.56;5080128;27;46387;-64
2023/09/01 00:27:30;;;;;;;;;2.00;1.00;;;;;19.86;60.93;100765.84;5080245;27;45402;-64
2023/09/01 00:29:55;;;;;;;;;0.50;0.50;;;;;19.85;61.20;100766.78;5080215;27;45274;-64
2023/09/01 00:32:21;;;;;;;;;3.00;1.50;;;;;19.84;61.31;100759.75;5080247;27;45505;-64
2023/09/01 00:34:46;;;;;;;;;1.00;0.75;;;;;19.84;61.27;100765.94;5080168;27;45286;-64
2023/09/01 00:37:11;;;;;;;;;1.50;1.50;;;;;19.82;60.71;100757.09;5079952;27;45396;-64
2023/09/01 00:39:37;;;;;;;;;3.00;1.25;;;;;19.81;61.22;100756.25;5080448;27;46003;-64
2023/09/01 00:42:02;;;;;;;;;2.25;2.25;;;;;19.83;61.09;100758.03;5079988;27;45481;-64
2023/09/01 00:44:28;;;;;;;;;2.00;2.00;;;;;19.83;60.87;100766.88;5080324;27;45386;-63
2023/09/01 00:46:53;;;;;;;;;2.75;1.00;;;;;19.81;60.77;100756.25;5079869;27;45438;-64
2023/09/01 00:49:19;;;;;;;;;5.00;5.00;;;;;19.81;60.85;100764.25;5080213;27;45241;-63
2023/09/01 00:51:47;;;;;;;;;2.00;1.00;;;;;19.78;61.03;100758.22;5079889;27;45423;-64
2023/09/01 00:54:13;;;;;;;;;2.00;1.00;;;;;19.78;60.84;100766.22;5080005;27;45266;-64
2023/09/01 00:56:38;;;;;;;;;2.00;2.00;;;;;19.80;61.30;100765.19;5079806;27;45351;-64
2023/09/01 00:59:04;;;;;;;;;1.50;1.25;;;;;19.78;61.03;100760.88;5080192;27;45223;-63
2023/09/01 01:01:30;;;;;;;;;1.50;1.50;;;;;19.78;61.33;100774.22;5079802;27;45374;-64
2023/09/01 01:03:55;;;;;;;;;0.75;0.75;;;;;19.77;61.54;100762.69;5079955;27;46394;-64
2023/09/01 01:06:43;;;;;;;;;1.33;0.00;;;;;19.73;61.10;100758.44;5083352;27;45450;-64
2023/09/01 01:09:25;;;;;;;;;0.75;0.75;;;;;19.74;61.16;100757.50;5083684;28;45349;-64
2023/09/01 01:12:26;;;;;;;;;2.25;1.00;;;;;19.74;61.01;100760.19;5083074;27;45391;-63
2023/09/01 01:14:55;;;;;;;;;1.50;0.00;;;;;19.72;60.89;100762.09;5082013;27;46322;-64
2023/09/01 01:17:21;;;;;;;;;1.00;0.00;;;;;19.71;61.18;100759.47;5083130;27;45437;-64
2023/09/01 01:19:59;;;;;;;;;2.00;1.00;;;;;19.71;61.33;100752.34;5083377;28;45365;-64
2023/09/01 01:22:48;;;;;;;;;1.00;1.00;;;;;19.70;61.01;100753.28;5083208;28;45298;-64
2023/09/01 01:25:13;;;;;;;;;0.00;0.00;;;;;19.69;60.82;100756.91;5082916;27;45409;-63
2023/09/01 01:27:42;;;;;;;;;1.00;1.00;;;;;19.68;61.52;100760.50;5081722;28;45190;-64
2023/09/01 01:30:09;;;;;;;;;1.50;1.00;;;;;19.67;61.49;100750.78;5083306;27;45393;-64
2023/09/01 01:32:35;;;;;;;;;2.00;0.75;;;;;19.68;61.00;100754.31;5082580;27;45519;-64
2023/09/01 01:35:34;;;;;;;;;0.00;0.00;;;;;19.66;61.34;100757.06;5082879;27;46031;-64
2023/09/01 01:38:18;;;;;;;;;1.00;0.00;;;;;19.64;61.21;100754.47;5083163;28;45406;-64
2023/09/01 01:40:47;;;;;;;;;0.00;0.00;;;;;19.63;61.21;100755.44;5083111;27;45517;-64
2023/09/01 01:43:15;;;;;;;;;0.00;0.00;;;;;19.63;61.17;100755.44;5082914;27;45473;-64
2023/09/01 01:45:42;;;;;;;;;0.25;0.25;;;;;19.64;60.96;100748.28;5098518;27;46810;-63
2023/09/01 01:48:07;;;;;;;;;2.00;0.00;;;;;19.62;61.18;100747.50;5082583;27;45264;-64
2023/09/01 01:50:33;;;;;;;;;1.00;1.00;;;;;19.62;60.99;100751.03;5082703;27;45300;-64
2023/09/01 01:52:59;;;;;;;;;1.00;1.00;;;;;19.61;61.28;100749.31;5082649;27;45243;-64
2023/09/01 01:55:24;;;;;;;;;0.00;0.00;;;;;19.59;61.40;100743.19;5082793;27;46047;-64
2023/09/01 01:57:49;;;;;;;;;0.00;0.00;;;;;19.60;60.79;100749.38;5082750;27;45429;-64
2023/09/01 02:00:15;;;;;;;;;0.50;0.00;;;;;19.59;61.16;100743.19;5082821;27;45318;-64
2023/09/01 02:02:42;;;;;;;;;0.25;0.25;;;;;19.58;61.07;100736.13;5082501;27;45300;-64
2023/09/01 02:05:08;;;;;;;;;1.75;1.00;;;;;19.58;61.21;100737.94;5082490;27;46229;-64
2023/09/01 02:07:34;;;;;;;;;0.00;0.00;;;;;19.55;60.73;100736.28;5082341;28;45459;-64
2023/09/01 02:10:00;;;;;;;;;2.75;0.50;;;;;19.56;60.84;100745.13;5082291;28;45220;-64
2023/09/01 02:12:25;;;;;;;;;0.00;0.00;;;;;19.54;61.24;100731.06;5082464;27;45253;-64
2023/09/01 02:14:51;;;;;;;;;1.00;0.00;;;;;19.53;61.18;100732.84;5082343;27;45312;-64
2023/09/01 02:17:16;;;;;;;;;2.00;0.75;;;;;19.51;60.73;100720.53;5081760;28;45422;-64
2023/09/01 02:19:41;;;;;;;;;0.33;0.00;;;;;19.50;61.08;100730.34;5082235;27;45266;-64
2023/09/01 02:22:06;;;;;;;;;1.75;0.00;;;;;19.51;60.64;100728.53;5082364;27;45149;-64
2023/09/01 02:24:33;;;;;;;;;1.00;0.00;;;;;19.49;61.08;100726.78;5081843;27;56408;-64
2023/09/01 02:26:58;;;;;;;;;0.00;0.00;;;;;19.47;60.94;100726.03;5082145;27;45432;-64
2023/09/01 02:29:23;;;;;;;;;1.25;0.75;;;;;19.45;60.54;100727.06;5082299;27;45458;-64
2023/09/01 02:31:49;;;;;;;;;0.00;0.00;;;;;19.44;60.97;100730.66;5082797;27;45551;-64
2023/09/01 02:34:14;;;;;;;;;3.00;1.00;;;;;19.43;60.52;100736.91;5081786;27;46076;-64
2023/09/01 02:36:40;;;;;;;;;2.00;2.00;;;;;19.44;60.90;100741.31;5082107;27;45330;-64
2023/09/01 02:39:05;;;;;;;;;0.00;0.00;;;;;19.43;60.71;100739.59;5080859;28;45330;-64
2023/09/01 02:41:30;;;;;;;;;1.00;0.75;;;;;19.41;61.12;100738.81;5082062;27;45473;-64
2023/09/01 02:43:57;;;;;;;;;0.00;0.00;;;;;19.40;60.94;100731.75;5081855;27;46041;-64
2023/09/01 02:46:22;;;;;;;;;0.00;0.00;;;;;19.35;61.13;100732.00;5081907;27;45361;-64
2023/09/01 02:48:49;;;;;;;;;0.00;0.00;;;;;19.36;60.57;100731.06;5081736;27;45298;-64
2023/09/01 02:51:14;;;;;;;;;2.00;1.00;;;;;19.37;60.88;100729.25;5080658;28;46037;-63
2023/09/01 02:53:40;;;;;;;;;0.75;0.75;;;;;19.35;61.04;100726.66;5081424;28;45794;-64
2023/09/01 02:56:05;;;;;;;;;5.00;1.00;;;;;19.36;61.16;100732.84;5081789;27;45223;-64
2023/09/01 02:58:31;;;;;;;;;1.00;1.00;;;;;19.34;60.64;100732.94;5081902;27;45233;-64
2023/09/01 03:00:56;;;;;;;;;1.00;0.00;;;;;19.31;61.18;100730.44;5081769;28;45417;-64
2023/09/01 03:03:23;;;;;;;;;1.00;1.00;;;;;19.29;61.24;100732.31;5114089;27;45286;-64
2023/09/01 03:05:49;;;;;;;;;0.50;0.00;;;;;19.28;61.02;100736.78;5081675;27;45287;-64
2023/09/01 03:08:17;;;;;;;;;2.00;1.00;;;;;19.27;60.85;100735.06;5081636;28;45349;-64
2023/09/01 03:10:43;;;;;;;;;0.50;0.50;;;;;19.26;60.74;100735.13;5081489;27;45313;-63
2023/09/01 03:13:08;;;;;;;;;0.00;0.00;;;;;19.25;60.70;100742.25;5081216;27;46313;-64
2023/09/01 03:15:34;;;;;;;;;1.25;0.50;;;;;19.25;61.12;100741.41;5081521;27;45377;-64
2023/09/01 03:18:00;;;;;;;;;0.75;0.50;;;;;19.23;61.05;100738.81;5080236;27;45226;-64
2023/09/01 03:20:25;;;;;;;;;1.00;1.00;;;;;19.23;61.30;100743.25;5081380;27;45146;-64
2023/09/01 03:22:50;;;;;;;;;0.00;0.00;;;;;19.21;61.51;100746.00;5081230;27;46095;-64
2023/09/01 03:25:17;;;;;;;;;1.00;1.00;;;;;19.20;60.81;100730.13;5080564;28;55420;-64
2023/09/01 03:27:43;;;;;;;;;0.00;0.00;;;;;19.20;61.45;100727.44;5080475;27;45307;-63
2023/09/01 03:30:10;;;;;;;;;2.50;1.00;;;;;19.20;61.45;100738.09;5081015;27;45486;-64
2023/09/01 03:32:35;;;;;;;;;1.00;1.00;;;;;19.16;60.79;100727.59;5080934;27;46171;-63
2023/09/01 03:35:00;;;;;;;;;2.00;1.00;;;;;19.17;61.37;100726.66;5081009;27;45362;-64
2023/09/01 03:37:26;;;;;;;;;0.00;0.00;;;;;19.13;61.09;100729.53;5081253;27;45274;-64
2023/09/01 03:39:51;;;;;;;;;1.00;0.50;;;;;19.13;61.54;100738.41;5081178;27;45517;-64
2023/09/01 03:42:17;;;;;;;;;1.25;1.25;;;;;19.14;60.89;100734.81;5081097;27;46258;-64
2023/09/01 03:44:42;;;;;;;;;1.00;1.00;;;;;19.13;61.23;100722.44;5081125;27;45347;-64
2023/09/01 03:47:08;;;;;;;;;1.00;1.00;;;;;19.13;60.95;100725.09;5080943;27;45278;-64
2023/09/01 03:49:34;;;;;;;;;1.25;1.25;;;;;19.11;61.43;100715.47;5080816;27;45267;-64
2023/09/01 03:51:59;;;;;;;;;0.25;0.25;;;;;19.13;61.31;100722.44;5080726;27;45221;-64
2023/09/01 03:54:25;;;;;;;;;1.00;1.00;;;;;19.13;61.15;100730.44;5080931;28;45245;-64
2023/09/01 03:56:50;;;;;;;;;3.50;0.25;;;;;19.12;61.46;100726.03;5080837;27;45348;-64
2023/09/01 03:59:16;;;;;;;;;1.50;1.00;;;;;19.12;61.42;100723.38;5080949;27;45416;-64
2023/09/01 04:01:43;;;;;;;;;0.25;0.25;;;;;19.11;61.45;100726.13;5080662;27;45298;-64
2023/09/01 04:04:08;;;;;;;;;1.00;1.00;;;;;19.10;61.03;100724.38;5080922;27;45168;-64
2023/09/01 04:06:34;;;;;;;;;2.00;2.00;;;;;19.07;61.50;100725.41;5080791;27;45219;-64
2023/09/01 04:08:59;;;;;;;;;0.00;0.00;;;;;19.07;61.13;100712.09;5080842;28;45331;-64
2023/09/01 04:11:24;;;;;;;;;2.00;2.00;;;;;19.06;61.34;100718.34;5080307;27;46152;-63
2023/09/01 04:13:50;;;;;;;;;2.00;1.00;;;;;19.06;61.28;100720.16;5080755;27;45304;-63
2023/09/01 04:16:15;;;;;;;;;1.50;1.50;;;;;19.02;61.23;100716.78;5080632;27;45269;-64
2023/09/01 04:18:40;;;;;;;;;1.00;1.00;;;;;19.00;61.02;100714.22;5080789;27;45441;-64
2023/09/01 04:21:06;;;;;;;;;1.25;0.50;;;;;19.01;61.40;100715.06;5080189;28;49339;-64
2023/09/01 04:23:37;;;;;;;;;1.00;1.00;;;;;19.01;61.41;100720.38;5080594;28;45556;-64
2023/09/01 04:26:02;;;;;;;;;1.00;1.00;;;;;19.00;61.55;100713.31;5080231;27;45355;-64
2023/09/01 04:28:28;;;;;;;;;0.75;0.75;;;;;18.98;61.40;100717.84;5080434;27;45544;-64
2023/09/01 04:30:53;;;;;;;;;0.00;0.00;;;;;18.97;61.36;100705.50;5080123;27;45234;-64
2023/09/01 04:33:18;;;;;;;;;2.00;2.00;;;;;18.94;60.99;100708.31;5079786;27;54501;-63
2023/09/01 04:35:44;;;;;;;;;5.50;3.75;;;;;18.95;61.33;100712.69;5080219;27;45279;-64
2023/09/01 04:38:09;;;;;;;;;1.00;1.00;;;;;18.92;61.56;100720.84;5080381;28;45632;-64
2023/09/01 04:40:34;;;;;;;;;3.50;3.00;;;;;18.92;61.50;100723.50;5084980;27;56089;-64
2023/09/01 04:43:00;;;;;;;;;1.00;1.00;;;;;18.92;61.64;100718.19;5087003;27;45246;-64
2023/09/01 04:45:25;;;;;;;;;2.50;2.00;;;;;18.91;61.45;100716.47;5087032;27;45410;-64
2023/09/01 04:47:51;;;;;;;;;1.75;1.00;;;;;18.91;61.88;100725.28;5086753;27;45577;-64
2023/09/01 04:50:17;;;;;;;;;2.75;1.25;;;;;18.89;61.46;100726.28;5086845;27;45298;-64
2023/09/01 04:52:43;;;;;;;;;1.00;1.00;;;;;18.89;61.27;100720.94;5086854;27;45247;-64
2023/09/01 04:55:08;;;;;;;;;1.00;0.00;;;;;18.90;61.68;100726.22;5086571;27;45289;-63
2023/09/01 04:57:35;;;;;;;;;1.25;1.25;;;;;18.89;61.68;100723.63;5086853;27;45307;-64
2023/09/01 05:00:00;;;;;;;;;1.50;1.50;;;;;18.88;61.67;100717.44;5086721;27;45292;-64
2023/09/01 05:02:25;;;;;;;;;1.50;1.25;;;;;18.88;61.93;100724.53;5086290;27;45234;-64
2023/09/01 05:04:51;;;;;;;;;2.50;1.50;;;;;18.89;62.06;100736.94;5086475;27;48134;-64
2023/09/01 05:07:16;;;;;;;;;1.50;1.50;;;;;18.87;62.09;100733.47;5086707;27;45238;-64
2023/09/01 05:09:42;;;;;;;;;1.25;1.25;;;;;18.85;61.77;100728.22;5086554;28;45226;-64
2023/09/01 05:12:07;;;;;;;;;1.00;1.00;;;;;18.86;61.85;100734.44;5086417;27;45425;-64
2023/09/01 05:14:32;;;;;;;;;1.75;1.75;;;;;18.86;62.32;100731.78;5086749;27;45412;-64
2023/09/01 05:16:58;;;;;;;;;2.00;2.00;;;;;18.86;62.25;100732.63;5086107;28;56676;-64
2023/09/01 05:19:23;;;;;;;;;1.25;0.75;;;;;18.79;61.80;100712.56;5085455;27;46180;-64
2023/09/01 05:21:49;;;;;;;;;1.00;1.00;;;;;18.86;62.12;100732.63;5086689;28;45188;-64
2023/09/01 05:24:14;;;;;;;;;2.00;2.00;;;;;18.88;61.63;100727.22;5086393;27;45153;-64
2023/09/01 05:26:39;;;;;;;;;2.00;1.00;;;;;18.89;61.81;100739.59;5086467;27;45498;-64
2023/09/01 05:29:05;;;;;;;;;2.00;2.00;;;;;18.87;61.99;100718.38;5086259;27;46475;-64
2023/09/01 05:31:30;;;;;;;;;1.00;1.00;;;;;18.89;61.79;100727.13;5086602;27;45302;-64
2023/09/01 05:33:55;;;;;;;;;2.00;1.00;;;;;18.90;61.59;100725.34;5086272;27;45993;-63
2023/09/01 05:36:21;;;;;;;;;1.00;1.00;;;;;18.89;61.84;100715.63;5086565;27;45449;-64
2023/09/01 05:38:46;;;;;;;;;3.25;3.00;;;;;18.90;62.00;100712.91;5086019;27;49028;-63
2023/09/01 05:41:12;;;;;;;;;2.50;2.50;;;;;18.91;61.78;100714.66;5085994;27;45348;-64
2023/09/01 05:43:38;;;;;;;;;1.00;1.00;;;;;18.92;62.23;100718.19;5086246;27;45631;-64
2023/09/01 05:46:03;;;;;;;;;2.25;1.00;;;;;18.93;61.92;100733.19;5086196;27;45449;-64
2023/09/01 05:48:29;;;;;;;;;1.00;1.00;;;;;18.94;61.79;100727.81;5118798;27;45396;-64
2023/09/01 05:50:54;;;;;;;;;1.00;1.00;;;;;18.93;61.71;100725.22;5084104;28;45225;-64
2023/09/01 05:53:21;;;;;;;;;4.50;2.75;;;;;18.97;61.88;100745.44;5082703;27;45234;-64
2023/09/01 05:55:46;;;;;;;;;1.00;1.00;;;;;18.96;61.23;100752.56;5082877;28;45145;-64
2023/09/01 05:58:12;;;;;;;;;4.00;2.00;;;;;18.91;61.73;100743.09;5082436;27;46091;-64
2023/09/01 06:00:37;;;;;;;;;3.00;2.00;;;;;18.97;62.14;100748.97;5082954;27;45194;-64
2023/09/01 06:03:03;;;;;;;;;1.25;1.25;;;;;18.98;61.75;100755.13;5082490;27;45520;-64
2023/09/01 06:05:29;;;;;;;;;4.00;2.00;;;;;19.00;61.78;100753.28;5082806;27;45206;-64
2023/09/01 06:07:54;;;;;;;;;1.50;1.00;;;;;19.00;61.82;100754.16;5082231;28;45371;-64
2023/09/01 06:10:20;;;;;;;;;2.00;2.00;;;;;19.02;62.25;100767.38;5082501;27;45379;-64
2023/09/01 06:12:45;;;;;;;;;1.00;1.00;;;;;19.01;62.15;100760.31;5082646;27;45408;-63
2023/09/01 06:15:11;;;;;;;;;3.00;1.00;;;;;19.00;62.32;100761.25;5082420;27;45631;-64
2023/09/01 06:17:37;;;;;;;;;1.00;1.00;;;;;19.04;62.28;100767.28;5081827;27;45431;-63
2023/09/01 06:20:04;;;;;;;;;2.25;1.25;;;;;19.03;62.09;100773.56;5082257;27;45477;-63
2023/09/01 06:22:30;;;;;;;;;2.50;1.00;;;;;19.03;62.67;100771.78;5082255;27;45248;-64
2023/09/01 06:24:55;;;;;;;;;2.25;1.25;;;;;19.03;62.45;100778.88;5081905;27;45253;-63
2023/09/01 06:27:20;;;;;;;;;1.25;1.25;;;;;19.02;62.58;100778.03;5082070;27;46114;-64
2023/09/01 06:29:46;;;;;;;;;1.25;1.25;;;;;19.04;62.61;100772.63;5075193;27;46204;-63
2023/09/01 06:32:11;;;;;;;;;3.75;2.00;;;;;19.04;62.55;100775.28;5067423;28;52355;-63
2023/09/01 06:34:39;;;;;;;;;1.75;0.75;;;;;19.04;62.60;100775.28;5082274;27;45441;-64
2023/09/01 06:37:05;;;;;;;;;1.25;1.00;;;;;19.06;62.51;100784.06;5081501;28;46563;-64
2023/09/01 06:39:30;;;;;;;;;1.75;1.00;;;;;19.06;62.48;100779.59;5076810;27;45311;-64
2023/09/01 06:41:57;;;;;;;;;2.00;2.00;;;;;19.06;62.50;100784.06;5080526;28;45458;-64
2023/09/01 06:44:22;;;;;;;;;1.00;1.00;;;;;19.09;62.72;100784.75;5081619;27;45350;-64
2023/09/01 06:46:48;;;;;;;;;0.75;0.75;;;;;19.11;62.62;100785.56;5081189;27;46124;-64
2023/09/01 06:49:14;;;;;;;;;4.00;2.00;;;;;19.11;62.09;100777.56;5081473;27;45676;-64
2023/09/01 06:51:40;;;;;;;;;3.25;2.00;;;;;19.13;61.95;100778.38;5081282;27;45387;-64
2023/09/01 06:54:05;;;;;;;;;3.00;1.00;;;;;19.17;62.37;100782.59;5081999;27;45323;-64
2023/09/01 06:56:31;;;;;;;;;2.00;2.00;;;;;19.20;62.22;100783.38;5081377;27;45231;-64
2023/09/01 06:58:56;;;;;;;;;1.75;1.00;;;;;19.22;62.47;100786.81;5081740;28;45307;-64
2023/09/01 07:01:21;;;;;;;;;1.50;1.50;;;;;19.22;62.17;100787.69;5081720;28;45203;-64
2023/09/01 07:03:47;;;;;;;;;1.00;1.00;;;;;19.25;62.12;100784.03;5081334;28;45339;-64
2023/09/01 07:06:12;;;;;;;;;3.75;2.25;;;;;19.26;62.21;100781.28;5081446;28;45459;-64
2023/09/01 07:08:38;;;;;;;;;1.50;1.50;;;;;19.27;62.52;100776.78;5081677;28;45242;-64
2023/09/01 07:11:04;;;;;;;;;1.50;1.50;;;;;19.30;62.29;100780.16;5081398;28;45235;-64
2023/09/01 07:13:30;;;;;;;;;4.00;3.00;;;;;19.32;62.28;100790.78;5081445;28;45264;-64
2023/09/01 07:15:56;;;;;;;;;6.75;4.75;;;;;19.35;62.09;100790.59;5081156;28;45818;-64
2023/09/01 07:18:25;;;;;;;;;1.00;1.00;;;;;19.38;62.58;100789.59;5081096;28;45306;-64
2023/09/01 07:20:51;;;;;;;;;1.00;1.00;;;;;19.40;62.12;100793.03;5081303;27;45183;-64
2023/09/01 07:23:17;;;;;;;;;1.50;1.00;;;;;19.42;62.64;100786.69;5081380;27;45185;-64
2023/09/01 07:25:44;;;;;;;;;1.75;1.75;;;;;19.45;62.50;100786.53;5080879;27;46124;-63
2023/09/01 07:28:11;;;;;;;;;3.00;1.25;;;;;19.45;62.40;100785.69;5081445;27;45235;-64
2023/09/01 07:30:37;;;;;;;;;3.75;1.00;;;;;19.48;62.13;100790.84;5088167;27;45515;-64
2023/09/01 07:33:02;;;;;;;;;1.00;1.00;;;;;19.49;62.59;100790.75;5081778;27;45488;-64
2023/09/01 07:35:28;;;;;;;;;1.50;1.00;;;;;19.53;62.67;100799.47;5100000;27;46966;-64
2023/09/01 07:37:53;;;;;;;;;1.00;1.00;;;;;19.54;62.80;100793.19;5082254;27;45314;-64
2023/09/01 07:40:19;;;;;;;;;0.50;0.50;;;;;19.55;62.64;100802.06;5081324;27;45367;-64
2023/09/01 07:42:44;;;;;;;;;1.25;1.00;;;;;19.56;62.79;100790.44;5084742;27;45337;-64
2023/09/01 07:45:09;;;;;;;;;1.00;1.00;;;;;19.58;62.23;100797.41;5080966;27;46145;-64
2023/09/01 07:47:35;;;;;;;;;2.50;1.00;;;;;19.60;62.12;100806.22;5080771;27;45317;-64
2023/09/01 07:50:00;;;;;;;;;1.00;1.00;;;;;19.62;62.64;100798.13;5081018;27;45157;-64
2023/09/01 07:52:25;;;;;;;;;0.50;0.50;;;;;19.63;62.15;100808.75;5081082;27;45145;-64
2023/09/01 07:54:51;;;;;;;;;1.00;1.00;;;;;19.67;62.61;100795.25;5080461;27;45309;-64
2023/09/01 07:57:16;;;;;;;;;0.75;0.75;;;;;19.66;62.26;100794.38;5079438;28;45350;-64
2023/09/01 07:59:42;;;;;;;;;1.25;1.00;;;;;19.69;62.23;100796.88;5080946;27;45145;-64
2023/09/01 08:02:07;;;;;;;;;1.50;0.00;;;;;19.73;62.09;100794.91;5080458;27;45450;-64
2023/09/01 08:04:33;;;;;;;;;1.67;1.67;;;;;19.74;62.62;100801.97;5080572;27;45365;-64
2023/09/01 08:06:59;;;;;;;;;1.00;1.00;;;;;19.74;62.51;100797.50;5080470;27;45235;-64
2023/09/01 08:09:25;;;;;;;;;2.67;1.00;;;;;19.77;62.65;100805.34;5080849;27;45623;-64
2023/09/01 08:11:51;;;;;;;;;1.00;1.00;;;;;19.80;62.64;100802.53;5095897;27;46561;-64
2023/09/01 08:14:16;;;;;;;;;0.00;0.00;;;;;19.79;62.80;100806.13;5112892;27;46364;-63
2023/09/01 08:16:41;;;;;;;;;2.00;0.67;;;;;19.86;62.74;100813.84;5080616;27;45167;-63
2023/09/01 08:19:07;;;;;;;;;1.00;1.00;;;;;19.88;62.53;100818.16;5080208;28;49547;-63
2023/09/01 08:21:33;;;;;;;;;3.25;2.00;;;;;19.90;62.56;100818.94;5080392;27;45640;-64
2023/09/01 08:23:59;;;;;;;;;2.00;0.25;;;;;19.92;62.10;100819.72;5080295;27;47238;-64
2023/09/01 08:26:25;;;;;;;;;0.75;0.75;;;;;19.93;62.45;100817.91;5080280;27;45557;-62
2023/09/01 08:28:50;;;;;;;;;1.75;1.75;;;;;19.98;62.31;100807.88;5080569;27;45331;-61
2023/09/01 08:31:16;;;;;;;;;2.75;1.25;;;;;20.00;62.29;100822.00;5080022;27;45257;-62
2023/09/01 08:33:41;;;;;;;;;0.33;0.00;;;;;20.01;62.30;100820.19;5078627;28;45877;-62
2023/09/01 08:36:07;;;;;;;;;0.75;0.75;;;;;20.02;62.57;100821.91;5080156;27;45343;-62
2023/09/01 08:38:32;;;;;;;;;2.00;0.75;;;;;20.05;62.37;100819.94;5080433;27;45246;-63
2023/09/01 08:41:03;;;;;;;;;0.00;0.00;;;;;20.09;61.90;100820.66;5080024;27;45420;-64
2023/09/01 08:43:38;;;;;;;;;1.50;0.00;;;;;20.11;62.38;100821.41;5080166;27;45413;-63
2023/09/01 08:46:04;;;;;;;;;0.00;0.00;;;;;20.12;62.27;100813.34;5079848;27;45269;-63
2023/09/01 08:48:31;;;;;;;;;0.50;0.00;;;;;20.14;61.89;100818.59;5079916;27;45253;-64
2023/09/01 08:50:56;;;;;;;;;2.00;0.50;;;;;20.18;61.67;100822.81;5079907;28;45243;-64
2023/09/01 08:53:24;;;;;;;;;2.25;2.25;;;;;20.20;62.09;100820.94;5112766;27;46944;-64
2023/09/01 08:55:49;;;;;;;;;2.00;2.00;;;;;20.23;61.92;100819.91;5066691;28;45231;-64
2023/09/01 08:58:15;;;;;;;;;3.00;1.50;;;;;20.26;61.64;100833.06;5080019;27;45350;-63
2023/09/01 09:00:40;;;;;;;;;1.75;1.75;;;;;20.27;61.57;100822.31;5080000;27;45380;-63
2023/09/01 09:03:06;;;;;;;;;2.00;2.00;;;;;20.29;61.84;100830.25;5078578;27;47771;-63
2023/09/01 09:05:33;;;;;;;;;3.00;2.00;;;;;20.33;62.31;100828.28;5080123;27;45460;-63
2023/09/01 09:08:07;;;;;;;;;3.00;2.75;;;;;20.38;61.51;100835.09;5112837;27;45450;-63
2023/09/01 09:10:33;;;;;;;;;2.00;2.00;;;;;20.40;62.04;100841.22;5079761;27;45426;-64
2023/09/01 09:12:58;;;;;;;;;2.50;2.00;;;;;20.46;62.01;100842.69;5079572;28;46180;-63
2023/09/01 09:15:24;;;;;;;;;1.00;0.00;;;;;20.51;61.42;100853.13;5079865;27;45419;-64
2023/09/01 09:17:49;;;;;;;;;1.00;1.00;;;;;20.54;61.87;100850.25;5079612;27;45260;-64
2023/09/01 09:20:19;;;;;;;;;4.75;2.00;;;;;20.57;61.70;100853.63;5078628;28;45793;-64
2023/09/01 09:23:01;;;;;;;;;1.00;1.00;;;;;20.60;61.84;100841.91;5079692;27;45533;-64
2023/09/01 09:25:31;;;;;;;;;3.50;1.00;;;;;20.69;61.18;100848.56;5079257;27;45403;-63
2023/09/01 09:27:58;;;;;;;;;1.75;1.75;;;;;20.73;61.07;100851.03;5082729;28;45364;-64
2023/09/01 09:30:27;;;;;;;;;1.00;1.00;;;;;20.77;61.70;100839.22;5083111;27;45309;-63
2023/09/01 09:33:06;;;;;;;;;2.25;1.25;;;;;20.85;61.50;100843.28;5082608;28;46146;-64
2023/09/01 09:35:47;;;;;;;;;2.50;1.50;;;;;20.88;60.86;100835.09;5082876;27;45314;-64
2023/09/01 09:38:12;;;;;;;;;1.00;1.00;;;;;20.95;61.34;100844.47;5081922;28;45259;-64
2023/09/01 09:40:38;;;;;;;;;4.00;2.75;;;;;21.03;61.49;100836.03;5082753;27;45527;-63
2023/09/01 09:43:08;;;;;;;;;3.25;2.50;;;;;21.09;60.79;100831.22;5082759;27;52451;-63
2023/09/01 09:45:34;;;;;;;;;1.33;1.33;;;;;21.18;60.94;100828.94;5082910;27;45327;-64
2023/09/01 09:48:02;;;;;;;;;2.67;0.00;;;;;21.25;60.72;100836.53;5082796;27;45268;-63
2023/09/01 09:50:29;;;;;;;;;2.67;0.33;;;;;21.33;60.74;100824.53;5082551;27;45436;-63
2023/09/01 09:53:02;;;;;;;;;6.25;5.00;;;;;21.41;60.95;100836.50;5098292;27;47554;-63
2023/09/01 09:55:31;;;;;;;;;1.00;1.00;;;;;21.49;60.49;100817.34;5082360;27;45252;-63
2023/09/01 09:58:08;;;;;;;;;2.75;2.00;;;;;21.58;60.70;100813.28;5082726;27;45351;-63
2023/09/01 10:00:40;;;;;;;;;3.00;2.00;;;;;21.68;60.73;100825.16;5082462;27;45302;-63
2023/09/01 10:03:07;;;;;;;;;1.25;1.25;;;;;21.75;59.98;100825.66;5082237;27;46968;-63
2023/09/01 10:05:34;;;;;;;;;1.00;1.00;;;;;21.85;59.99;100826.84;5082409;28;45317;-63
2023/09/01 10:08:05;;;;;;;;;2.00;2.00;;;;;21.97;60.05;100825.22;5081339;28;45339;-63
2023/09/01 10:10:35;;;;;;;;;2.00;2.00;;;;;22.09;60.25;100834.31;5082323;27;45401;-63
2023/09/01 10:13:06;;;;;;;;;3.75;2.00;;;;;22.21;60.22;100817.53;5082355;28;45281;-63
2023/09/01 10:15:33;;;;;;;;;0.67;0.67;;;;;22.32;59.76;100832.88;5082342;28;45298;-63
2023/09/01 10:18:05;;;;;;;;;3.00;2.25;;;;;22.45;59.57;100834.84;5082186;27;45310;-63
2023/09/01 10:20:33;;;;;;;;;1.00;1.00;;;;;22.58;59.35;100832.25;5082443;27;45334;-63
2023/09/01 10:23:01;;;;;;;;;1.25;1.25;;;;;22.71;59.24;100830.50;5082164;27;46598;-63
2023/09/01 10:25:26;;;;;;;;;1.33;1.33;;;;;22.81;59.07;100828.09;5081775;27;45261;-63
2023/09/01 10:28:04;;;;;;;;;2.33;2.33;;;;;22.95;59.26;100835.25;5082142;27;45259;-63
2023/09/01 10:30:39;;;;;;;;;3.25;2.00;;;;;23.10;58.95;100834.25;5081989;27;45243;-63
2023/09/01 10:33:09;;;;;;;;;1.67;1.67;;;;;23.23;58.91;100837.00;5081606;28;45435;-63
2023/09/01 10:35:39;;;;;;;;;0.67;0.33;;;;;23.33;58.44;100832.78;5081952;27;45298;-63
2023/09/01 10:38:11;;;;;;;;;1.00;1.00;;;;;23.42;58.20;100830.41;5081791;27;45730;-63
2023/09/01 10:40:55;;;;;;;;;1.00;1.00;;;;;23.48;57.75;100830.88;5081628;27;45651;-63
2023/09/01 10:43:50;;;;;;;;;3.00;1.50;;;;;23.53;57.75;100838.59;5081680;27;45398;-63
2023/09/01 10:46:16;;;;;;;;;1.00;1.00;;;;;23.54;57.23;100848.38;5079869;27;45265;-63
2023/09/01 10:48:58;;;;;;;;;0.67;0.67;;;;;23.54;57.44;100834.97;5081854;27;45310;-63
2023/09/01 10:51:37;;;;;;;;;0.00;0.00;;;;;23.52;57.12;100834.19;5081825;27;45414;-63
2023/09/01 10:54:22;;;;;;;;;2.00;2.00;;;;;23.47;56.87;100836.34;5081600;27;47094;-63
2023/09/01 10:56:58;;;;;;;;;1.00;1.00;;;;;23.47;56.78;100836.34;5081218;27;45406;-63
2023/09/01 10:59:37;;;;;;;;;0.00;0.00;;;;;23.40;56.69;100830.53;5081677;27;45545;-63
2023/09/01 11:02:22;;;;;;;;;1.00;1.00;;;;;23.28;56.19;100829.53;5081228;27;45447;-63
2023/09/01 11:04:48;;;;;;;;;1.00;1.00;;;;;23.28;56.48;100837.59;5114036;27;47892;-63
2023/09/01 11:07:14;;;;;;;;;0.33;0.33;;;;;23.25;56.38;100836.91;5081506;28;45453;-64
2023/09/01 11:09:39;;;;;;;;;3.00;1.00;;;;;23.19;56.44;100835.50;5081491;27;45260;-63
2023/09/01 11:12:07;;;;;;;;;1.00;0.00;;;;;23.16;56.31;100843.75;5081232;27;45351;-63
2023/09/01 11:14:35;;;;;;;;;0.67;0.67;;;;;23.16;56.53;100851.78;5081218;27;46867;-63
2023/09/01 11:17:03;;;;;;;;;2.00;1.00;;;;;23.18;56.53;100844.47;5081007;27;45497;-63
2023/09/01 11:19:32;;;;;;;;;0.00;0.00;;;;;23.24;56.60;100828.00;5096783;27;45354;-63
2023/09/01 11:21:58;;;;;;;;;0.00;0.00;;;;;23.27;55.93;100827.81;5081297;28;45411;-63
2023/09/01 11:24:24;;;;;;;;;0.00;0.00;;;;;23.39;56.21;100834.16;5080833;27;46280;-63